Time;durP1;ratioP1;P1;durP2;ratioP2;P2;SDS_P1;SDS_P2;PMS_P1;PMS_P2;Temp;Humidity;BMP_temperature;BMP_pressure;BME280_temperature;BME280_humidity;BME280_pressure;Samples;Min_cycle;Max_cycle;Signal;HPM_P1;HPM_P2
2023/01/11 00:02:08;;;;;;;13.70;6.33;;;;;;;-145.18;100.00;46679.94;6181158;23;20009;-75
2023/01/11 00:04:34;;;;;;;17.27;6.00;;;;;;;-145.18;100.00;46674.06;6161464;23;20041;-74
2023/01/11 00:06:59;;;;;;;15.03;5.50;;;;;;;-145.18;100.00;46672.13;6151328;23;20014;-74
2023/01/11 00:09:24;;;;;;;7.93;5.27;;;;;;;-145.18;100.00;46681.88;6151885;23;20036;-74
2023/01/11 00:11:50;;;;;;;14.47;6.00;;;;;;;-145.18;100.00;46681.88;6151684;23;20036;-74
2023/01/11 00:14:15;;;;;;;13.17;6.00;;;;;;;-145.18;100.00;46681.88;6151664;23;20065;-74
2023/01/11 00:16:41;;;;;;;23.07;5.50;;;;;;;-145.18;100.00;46677.97;6151742;23;20015;-74
2023/01/11 00:19:06;;;;;;;10.27;5.00;;;;;;;-145.18;100.00;46677.97;6151237;23;20013;-74
2023/01/11 00:21:31;;;;;;;12.20;5.33;;;;;;;-145.18;100.00;46677.97;6151536;23;20097;-74
2023/01/11 00:23:57;;;;;;;13.03;5.27;;;;;;;-145.18;100.00;46676.03;6151501;23;20009;-74
2023/01/11 00:26:22;;;;;;;21.97;6.30;;;;;;;-145.18;100.00;46677.97;6151385;23;20013;-74
2023/01/11 00:28:48;;;;;;;11.67;4.73;;;;;;;-145.18;100.00;46677.97;6150331;23;20009;-74
2023/01/11 00:31:14;;;;;;;14.80;5.33;;;;;;;-145.18;100.00;46685.78;6151195;23;20013;-74
2023/01/11 00:33:40;;;;;;;14.17;5.57;;;;;;;-145.18;100.00;46679.94;6151775;23;20017;-74
2023/01/11 00:36:06;;;;;;;16.60;4.47;;;;;;;-145.18;100.00;46681.88;6151582;23;20437;-73
2023/01/11 00:38:43;;;;;;;14.20;4.87;;;;;;;-145.18;100.00;46676.03;6151556;23;20573;-73
2023/01/11 00:49:23;;;;;;;11.17;4.20;;;;;;;-145.18;100.00;46676.03;6151566;23;20013;-74
2023/01/11 00:51:49;;;;;;;10.27;4.73;;;;;;;-145.18;100.00;46676.03;6151368;23;20005;-72
2023/01/11 00:54:14;;;;;;;11.00;4.23;;;;;;;-145.18;100.00;46681.88;6151476;23;20439;-72
2023/01/11 00:56:40;;;;;;;8.03;4.10;;;;;;;-145.18;100.00;46679.94;6151596;23;20017;-74
2023/01/11 00:59:05;;;;;;;8.20;4.60;;;;;;;-145.18;100.00;46676.03;6151354;23;20436;-74
2023/01/11 01:01:31;;;;;;;11.17;5.23;;;;;;;-145.18;100.00;46674.06;6151401;23;20028;-74
2023/01/11 01:03:58;;;;;;;14.47;4.20;;;;;;;-145.18;100.00;46672.13;6151411;23;20352;-74
2023/01/11 01:06:23;;;;;;;16.87;5.50;;;;;;;-145.18;100.00;46676.03;6151223;23;20010;-74
2023/01/11 01:08:49;;;;;;;9.43;5.17;;;;;;;-145.18;100.00;46676.03;6152693;23;20088;-74
2023/01/11 01:11:15;;;;;;;9.53;4.13;;;;;;;-145.18;100.00;46676.03;6152789;23;20005;-74
2023/01/11 01:16:24;;;;;;;8.77;4.67;;;;;;;-145.18;100.00;46674.06;6153032;23;20013;-74
2023/01/11 01:18:52;;;;;;;12.10;4.73;;;;;;;-145.18;100.00;46672.13;6153231;23;20072;-74
2023/01/11 01:21:18;;;;;;;6.87;4.77;;;;;;;-145.18;100.00;46679.94;6152667;23;20040;-73
2023/01/11 01:23:43;;;;;;;9.10;4.40;;;;;;;-145.18;100.00;46672.13;6153243;23;20005;-73
2023/01/11 01:26:09;;;;;;;12.90;5.67;;;;;;;-145.18;100.00;46672.13;6152947;23;20002;-73
2023/01/11 01:28:34;;;;;;;10.17;4.73;;;;;;;-145.18;100.00;46672.13;6153152;23;20013;-73
2023/01/11 01:30:59;;;;;;;13.67;6.30;;;;;;;-145.18;100.00;46676.03;6152752;23;20020;-73
2023/01/11 01:33:25;;;;;;;11.20;5.40;;;;;;;-145.18;100.00;46679.94;6153041;23;20012;-73
2023/01/11 01:35:50;;;;;;;13.50;5.47;;;;;;;-145.18;100.00;46679.94;6153153;23;20045;-73
2023/01/11 01:38:16;;;;;;;8.30;5.10;;;;;;;-145.18;100.00;46670.16;6150772;23;20014;-72
2023/01/11 01:40:44;;;;;;;7.10;4.87;;;;;;;-145.18;100.00;46674.06;6153015;23;20044;-71
2023/01/11 01:43:15;;;;;;;8.87;5.23;;;;;;;-145.18;100.00;46674.06;6152717;23;20573;-72
2023/01/11 01:45:42;;;;;;;10.83;5.63;;;;;;;-145.18;100.00;46670.16;6152791;23;20076;-72
2023/01/11 01:48:15;;;;;;;10.97;5.47;;;;;;;-145.18;100.00;46674.06;6152793;23;20020;-72
2023/01/11 01:50:52;;;;;;;12.87;6.20;;;;;;;-145.18;100.00;46674.06;6153014;23;20036;-72
2023/01/11 01:53:34;;;;;;;11.87;6.60;;;;;;;-145.18;100.00;46672.13;6150872;23;20005;-72
2023/01/11 01:56:02;;;;;;;10.50;6.93;;;;;;;-145.18;100.00;46670.16;6153047;23;20002;-72
2023/01/11 01:58:33;;;;;;;11.27;6.67;;;;;;;-145.18;100.00;46672.13;6152968;23;20137;-72
2023/01/11 02:01:45;;;;;;;14.83;6.83;;;;;;;-145.18;100.00;46670.16;6152627;23;20013;-72
2023/01/11 02:03:49;;;;;;;14.83;7.57;;;;;;;-145.18;100.00;46672.13;6152572;23;20022;-72
2023/01/11 02:06:14;;;;;;;12.43;7.80;;;;;;;-145.18;100.00;46668.22;6152310;23;20092;-72
2023/01/11 02:08:45;;;;;;;15.70;7.27;;;;;;;-145.18;100.00;46674.06;6152444;23;20020;-72
2023/01/11 02:11:31;;;;;;;13.93;7.80;;;;;;;-145.18;100.00;46664.31;6152610;23;20085;-72
2023/01/11 02:14:07;;;;;;;13.53;7.40;;;;;;;-145.18;100.00;46670.16;6152743;23;20013;-72
2023/01/11 02:16:33;;;;;;;18.47;7.40;;;;;;;-145.18;100.00;46670.16;6152783;23;20429;-72
2023/01/11 02:18:59;;;;;;;10.77;8.03;;;;;;;-145.18;100.00;46666.25;6151984;23;20014;-72
2023/01/11 02:21:44;;;;;;;11.10;7.80;;;;;;;-145.18;100.00;46670.16;6152936;23;20009;-72
2023/01/11 02:24:55;;;;;;;13.77;7.83;;;;;;;-145.18;100.00;46670.16;6152717;23;20006;-71
2023/01/11 02:27:39;;;;;;;13.80;7.60;;;;;;;-145.18;100.00;46668.22;6123739;23;20427;-72
2023/01/11 02:30:07;;;;;;;11.80;7.20;;;;;;;-145.18;100.00;46668.22;6152427;23;20006;-72
2023/01/11 02:33:17;;;;;;;10.63;7.40;;;;;;;-145.18;100.00;46674.06;6152396;23;20076;-72
2023/01/11 02:36:06;;;;;;;12.73;6.47;;;;;;;-145.18;100.00;46666.25;6061691;23;20015;-72
2023/01/11 02:38:38;;;;;;;10.87;5.83;;;;;;;-145.18;100.00;46670.16;6152494;23;20017;-71
2023/01/11 02:45:13;;;;;;;14.10;5.18;;;;;;;-145.18;100.00;46664.31;6062162;23;20029;-71
2023/01/11 02:47:48;;;;;;;10.53;5.20;;;;;;;-145.18;100.00;46670.16;6147506;23;20014;-71
2023/01/11 02:50:46;;;;;;;11.70;5.30;;;;;;;-145.18;100.00;46676.03;6152093;23;20004;-71
2023/01/11 02:53:30;;;;;;;13.97;5.97;;;;;;;-145.18;100.00;46672.13;6151712;23;20339;-71
2023/01/11 02:56:02;;;;;;;8.20;4.90;;;;;;;-145.18;100.00;46676.03;6152144;23;20005;-72
2023/01/11 02:58:33;;;;;;;7.37;4.53;;;;;;;-145.18;100.00;46668.22;6152356;23;20008;-71
2023/01/11 03:03:33;;;;;;;7.45;4.85;;;;;;;-145.18;100.00;46672.13;6148083;23;20028;-73
2023/01/11 03:06:22;;;;;;;10.00;5.20;;;;;;;-145.18;100.00;46666.25;6152033;23;20014;-72
2023/01/11 03:09:12;;;;;;;11.10;5.40;;;;;;;-145.18;100.00;46666.25;6151633;23;20320;-72
2023/01/11 03:15:09;;;;;;;6.83;5.20;;;;;;;-145.18;100.00;46668.22;6152344;23;20044;-72
2023/01/11 03:17:59;;;;;;;7.80;4.73;;;;;;;-145.18;100.00;46670.16;6152700;23;20033;-72
2023/01/11 03:20:35;;;;;;;7.83;4.30;;;;;;;-145.18;100.00;46670.16;6152756;23;20044;-72
2023/01/11 03:23:23;;;;;;;5.83;3.47;;;;;;;-145.18;100.00;46672.13;6152072;23;20316;-72
2023/01/11 03:26:05;;;;;;;6.77;3.80;;;;;;;-145.18;100.00;46668.22;6152597;23;20493;-72
2023/01/11 03:28:52;;;;;;;3.43;3.00;;;;;;;-145.18;100.00;46672.13;6152346;23;20005;-72
2023/01/11 03:31:33;;;;;;;5.43;3.60;;;;;;;-145.18;100.00;46674.06;6152033;23;20338;-72
2023/01/11 03:34:21;;;;;;;5.33;3.40;;;;;;;-145.18;100.00;46672.13;6151720;23;20006;-72
2023/01/11 03:37:07;;;;;;;5.03;2.83;;;;;;;-145.18;100.00;46676.03;6152710;23;20080;-72
2023/01/11 03:39:45;;;;;;;5.53;3.03;;;;;;;-145.18;100.00;46672.13;6151834;23;20419;-71
2023/01/11 03:42:15;;;;;;;3.40;2.93;;;;;;;-145.18;100.00;46676.03;6151836;23;20001;-72
2023/01/11 03:44:48;;;;;;;5.17;2.90;;;;;;;-145.18;100.00;46670.16;6152884;23;20462;-72
2023/01/11 03:47:17;;;;;;;3.63;2.73;;;;;;;-145.18;100.00;46676.03;6152179;23;20006;-72
2023/01/11 03:49:49;;;;;;;7.00;2.93;;;;;;;-145.18;100.00;46677.97;6152641;23;20006;-72
2023/01/11 03:52:16;;;;;;;3.80;3.10;;;;;;;-145.18;100.00;46677.97;6152159;23;20223;-72
2023/01/11 03:54:43;;;;;;;6.17;3.43;;;;;;;-145.18;100.00;46674.06;6152258;23;20494;-72
2023/01/11 03:57:32;;;;;;;8.40;4.23;;;;;;;-145.18;100.00;46676.03;6152006;23;20010;-72
2023/01/11 03:59:57;;;;;;;5.63;3.83;;;;;;;-145.18;100.00;46674.06;6152306;23;20072;-72
2023/01/11 04:02:33;;;;;;;7.73;3.63;;;;;;;-145.18;100.00;46674.06;6150422;23;20017;-73
2023/01/11 04:04:59;;;;;;;;;;;;;;;-145.18;100.00;46670.16;6152802;23;20052;-73
2023/01/11 04:07:24;;;;;;;6.57;3.97;;;;;;;-145.18;100.00;46683.84;6151945;23;19909;-72
2023/01/11 04:09:49;;;;;;;7.00;4.30;;;;;;;-145.18;100.00;46683.84;6150968;23;20017;-72
2023/01/11 04:12:15;;;;;;;8.80;3.70;;;;;;;-145.18;100.00;46676.03;6151828;23;20017;-72
2023/01/11 04:14:40;;;;;;;5.97;3.47;;;;;;;-145.18;100.00;46676.03;6152636;23;20057;-72
2023/01/11 04:17:06;;;;;;;6.20;3.80;;;;;;;-145.18;100.00;46676.03;6151742;23;20010;-72
2023/01/11 04:19:31;;;;;;;9.03;4.10;;;;;;;-145.18;100.00;46674.06;6152487;23;20443;-72
2023/01/11 04:21:56;;;;;;;6.20;3.47;;;;;;;-145.18;100.00;46683.84;6151987;23;20013;-73
2023/01/11 04:24:22;;;;;;;4.50;3.90;;;;;;;-145.18;100.00;46676.03;6152420;23;20493;-72
2023/01/11 04:26:47;;;;;;;8.10;4.30;;;;;;;-145.18;100.00;46677.97;6152192;23;20077;-72
2023/01/11 04:29:13;;;;;;;11.47;5.10;;;;;;;-145.18;100.00;46677.97;6151781;23;20059;-72
2023/01/11 04:31:38;;;;;;;8.30;5.73;;;;;;;-145.18;100.00;46676.03;6152537;23;20010;-72
2023/01/11 04:34:04;;;;;;;12.13;6.93;;;;;;;-145.18;100.00;46679.94;6151784;23;20013;-72
2023/01/11 04:36:30;;;;;;;9.17;5.60;;;;;;;-145.18;100.00;46677.97;6152259;23;20096;-72
2023/01/11 04:38:56;;;;;;;12.03;7.40;;;;;;;-145.18;100.00;46676.03;6152211;23;20013;-72
2023/01/11 04:44:05;;;;;;;16.57;6.70;;;;;;;-145.18;100.00;46676.03;6153775;23;20032;-72
2023/01/11 04:46:31;;;;;;;13.97;6.13;;;;;;;-145.18;100.00;46679.94;6154008;23;20443;-72
2023/01/11 04:48:56;;;;;;;19.27;8.10;;;;;;;-145.18;100.00;46676.03;6153565;23;20471;-72
2023/01/11 04:51:22;;;;;;;14.50;6.80;;;;;;;-145.18;100.00;46676.03;6154218;23;20100;-72
2023/01/11 04:53:48;;;;;;;14.37;6.17;;;;;;;-145.18;100.00;46677.97;6153936;23;20006;-72
2023/01/11 04:56:14;;;;;;;15.00;6.67;;;;;;;-145.18;100.00;46679.94;6154217;23;20005;-72
2023/01/11 04:58:40;;;;;;;20.87;6.87;;;;;;;-145.18;100.00;46683.84;6153973;23;20468;-72
2023/01/11 05:01:16;;;;;;;13.33;5.87;;;;;;;-145.18;100.00;46677.97;6153699;23;20017;-72
2023/01/11 05:03:41;;;;;;;;;;;;;;;-145.18;100.00;46683.84;6157343;23;20386;-72
2023/01/11 05:06:07;;;;;;;19.80;4.25;;;;;;;-145.18;100.00;46679.94;6152208;23;20028;-72
2023/01/11 05:08:32;;;;;;;21.40;3.33;;;;;;;-145.18;100.00;46689.69;6153656;23;20009;-72
2023/01/11 05:11:01;;;;;;;21.53;3.87;;;;;;;-145.18;100.00;46681.88;6153376;23;20076;-72
2023/01/11 05:13:42;;;;;;;16.53;3.03;;;;;;;-145.18;100.00;46689.69;6153771;23;20450;-72
2023/01/11 05:16:14;;;;;;;26.53;4.50;;;;;;;-145.18;100.00;46687.75;6153298;23;20044;-71
2023/01/11 05:18:41;;;;;;;25.17;3.50;;;;;;;-145.18;100.00;46683.84;6153384;23;20001;-72
2023/01/11 05:21:08;;;;;;;29.30;4.30;;;;;;;-145.18;100.00;46689.69;6153344;23;20398;-71
2023/01/11 05:23:37;;;;;;;18.17;3.40;;;;;;;-145.18;100.00;46689.69;6153690;23;20473;-71
2023/01/11 05:26:13;;;;;;;28.80;5.00;;;;;;;-145.18;100.00;46683.84;6153321;23;20060;-71
2023/01/11 05:28:39;;;;;;;22.50;3.37;;;;;;;-145.18;100.00;46697.50;6153228;23;20033;-71
2023/01/11 05:31:05;;;;;;;24.03;2.97;;;;;;;-145.18;100.00;46703.38;6153570;23;20340;-71
2023/01/11 05:33:31;;;;;;;25.50;3.30;;;;;;;-145.18;100.00;46697.50;6153563;23;19998;-71
2023/01/11 05:36:07;;;;;;;23.27;3.00;;;;;;;-145.18;100.00;46703.38;6153418;23;20084;-72
2023/01/11 05:38:33;;;;;;;17.53;2.63;;;;;;;-145.18;100.00;46687.75;6153276;23;20044;-71
2023/01/11 05:41:02;;;;;;;24.90;3.70;;;;;;;-145.18;100.00;46701.41;6153426;23;20009;-71
2023/01/11 05:43:28;;;;;;;19.17;2.93;;;;;;;-145.18;100.00;46695.56;6153262;23;20005;-71
2023/01/11 05:45:55;;;;;;;20.13;2.70;;;;;;;-145.18;100.00;46691.66;6153117;23;20108;-71
2023/01/11 05:48:21;;;;;;;19.00;3.67;;;;;;;-145.18;100.00;46709.22;6153293;23;20006;-71
2023/01/11 05:50:54;;;;;;;27.57;4.77;;;;;;;-145.18;100.00;46699.47;6153261;23;20324;-71
2023/01/11 05:53:22;;;;;;;28.53;3.43;;;;;;;-145.18;100.00;46709.22;6151083;23;20002;-72
2023/01/11 05:55:55;;;;;;;31.07;4.17;;;;;;;-145.18;100.00;46701.41;6153426;23;20533;-71
2023/01/11 05:58:21;;;;;;;22.67;3.90;;;;;;;-145.18;100.00;46713.13;6153345;23;20052;-71
2023/01/11 06:00:52;;;;;;;23.50;3.03;;;;;;;-145.18;100.00;46715.09;6153393;23;20025;-71
2023/01/11 06:03:18;;;;;;;21.73;3.60;;;;;;;-145.18;100.00;46705.31;6152832;23;20048;-71
2023/01/11 06:05:44;;;;;;;30.40;4.47;;;;;;;-145.18;100.00;46715.09;6153433;23;20009;-71
2023/01/11 06:08:10;;;;;;;25.37;3.40;;;;;;;-145.18;100.00;46719.00;6152766;23;20010;-71
2023/01/11 06:10:35;;;;;;;24.57;3.03;;;;;;;-145.18;100.00;46715.09;6153487;23;20012;-71
2023/01/11 06:15:45;;;;;;;20.83;2.93;;;;;;;-145.18;100.00;46719.00;6153477;23;20072;-71
2023/01/11 06:18:10;;;;;;;23.70;2.67;;;;;;;-145.18;100.00;46720.94;6152713;23;20435;-71
2023/01/11 06:20:35;;;;;;;23.73;3.37;;;;;;;-145.18;100.00;46724.84;6153237;23;20048;-71
2023/01/11 06:23:01;;;;;;;21.27;3.60;;;;;;;-145.18;100.00;46724.84;6152825;23;20009;-71
2023/01/11 06:25:27;;;;;;;19.43;3.10;;;;;;;-145.18;100.00;46724.84;6152518;23;20021;-71
2023/01/11 06:27:52;;;;;;;22.37;2.13;;;;;;;-145.18;100.00;46720.94;6153085;23;20447;-71
2023/01/11 06:30:19;;;;;;;16.27;2.93;;;;;;;-145.18;100.00;46724.84;6152844;23;20404;-71
2023/01/11 06:32:45;;;;;;;25.27;3.47;;;;;;;-145.18;100.00;46726.81;6152634;23;20008;-71
2023/01/11 06:35:10;;;;;;;20.27;2.50;;;;;;;-145.18;100.00;46722.91;6152871;23;20227;-71
2023/01/11 06:37:35;;;;;;;15.90;1.90;;;;;;;-145.18;100.00;46726.81;6152722;23;20548;-71
2023/01/11 06:40:01;;;;;;;19.97;2.33;;;;;;;-145.18;100.00;46722.91;6150775;23;20024;-71
2023/01/11 06:42:26;;;;;;;15.70;2.43;;;;;;;-145.18;100.00;46728.75;6153018;23;20013;-71
2023/01/11 06:44:51;;;;;;;23.03;2.43;;;;;;;-145.18;100.00;46724.84;6152683;23;20188;-71
2023/01/11 06:47:17;;;;;;;18.40;2.30;;;;;;;-145.18;100.00;46728.75;6152197;23;20018;-71
2023/01/11 06:49:42;;;;;;;21.97;4.03;;;;;;;-145.18;100.00;46728.75;6152752;23;20049;-71
2023/01/11 06:52:07;;;;;;;18.47;2.60;;;;;;;-145.18;100.00;46728.75;6152490;23;20016;-71
2023/01/11 06:54:33;;;;;;;16.87;2.90;;;;;;;-145.18;100.00;46732.66;6152718;23;20330;-72
2023/01/11 06:56:58;;;;;;;20.67;3.77;;;;;;;-145.18;100.00;46728.75;6150970;23;20009;-71
2023/01/11 06:59:23;;;;;;;18.33;3.33;;;;;;;-145.18;100.00;46732.66;6151084;23;20014;-72
2023/01/11 07:01:49;;;;;;;18.27;3.03;;;;;;;-145.18;100.00;46726.81;6151005;23;20009;-72
2023/01/11 07:04:15;;;;;;;17.07;2.83;;;;;;;-145.18;100.00;46728.75;6154887;23;20029;-72
2023/01/11 07:06:41;;;;;;;17.23;2.40;;;;;;;-145.18;100.00;46728.75;6152353;23;20041;-72
2023/01/11 07:09:06;;;;;;;23.87;3.13;;;;;;;-145.18;100.00;46728.75;6152229;23;20542;-72
2023/01/11 07:11:33;;;;;;;18.13;3.27;;;;;;;-145.18;100.00;46736.56;6152965;23;20347;-72
2023/01/11 07:13:59;;;;;;;21.80;2.77;;;;;;;-145.18;100.00;46724.84;6150247;23;20016;-72
2023/01/11 07:16:24;;;;;;;24.40;3.03;;;;;;;-145.18;100.00;46728.75;6152985;23;20231;-72
2023/01/11 07:18:49;;;;;;;21.63;3.50;;;;;;;-145.18;100.00;46732.66;6152310;23;20032;-72
2023/01/11 07:21:15;;;;;;;20.83;2.63;;;;;;;-145.18;100.00;46728.75;6152421;23;20013;-72
2023/01/11 07:23:40;;;;;;;19.07;2.33;;;;;;;-145.18;100.00;46728.75;6152523;23;20006;-72
2023/01/11 07:26:05;;;;;;;19.37;2.67;;;;;;;-145.18;100.00;46728.75;6152376;23;20009;-72
2023/01/11 07:28:31;;;;;;;33.17;3.33;;;;;;;-145.18;100.00;46724.84;6152292;23;20360;-72
2023/01/11 07:30:57;;;;;;;24.47;2.27;;;;;;;-145.18;100.00;46722.91;6152017;23;20105;-72
2023/01/11 07:33:23;;;;;;;22.17;2.93;;;;;;;-145.18;100.00;46728.75;6151877;23;20474;-72
2023/01/11 07:35:48;;;;;;;19.50;3.17;;;;;;;-145.18;100.00;46726.81;6152564;23;20231;-72
2023/01/11 07:38:14;;;;;;;22.73;3.17;;;;;;;-145.18;100.00;46728.75;6150811;23;20001;-72
2023/01/11 07:40:39;;;;;;;17.53;2.87;;;;;;;-145.18;100.00;46724.84;6152410;23;20457;-72
2023/01/11 07:43:13;;;;;;;25.33;3.77;;;;;;;-145.18;100.00;46720.94;6152060;23;20060;-72
2023/01/11 07:45:43;;;;;;;12.30;2.23;;;;;;;-145.18;100.00;46722.91;6153086;23;20014;-72
2023/01/11 07:48:09;;;;;;;27.73;3.83;;;;;;;-145.18;100.00;46724.84;6152031;23;20291;-72
2023/01/11 07:50:37;;;;;;;25.50;3.03;;;;;;;-145.18;100.00;46726.81;6152498;23;20232;-72
2023/01/11 07:53:03;;;;;;;14.37;1.83;;;;;;;-145.18;100.00;46722.91;6151995;23;20002;-72
2023/01/11 07:55:28;;;;;;;18.57;2.37;;;;;;;-145.18;100.00;46724.84;6152493;23;20245;-72
2023/01/11 07:57:57;;;;;;;27.13;3.93;;;;;;;-145.18;100.00;46724.84;6150587;23;20077;-72
2023/01/11 08:00:23;;;;;;;23.90;4.27;;;;;;;-145.18;100.00;46722.91;6152328;23;20013;-72
2023/01/11 08:02:51;;;;;;;23.53;2.97;;;;;;;-145.18;100.00;46726.81;6150031;23;20255;-72
2023/01/11 08:05:18;;;;;;;17.57;2.80;;;;;;;-145.18;100.00;46722.91;6150560;23;20789;-71
2023/01/11 08:07:43;;;;;;;21.93;3.47;;;;;;;-145.18;100.00;46722.91;6147297;23;20223;-72
2023/01/11 08:10:09;;;;;;;21.17;3.20;;;;;;;-145.18;100.00;46728.75;6151902;23;20320;-72
2023/01/11 08:15:24;;;;;;;24.97;2.80;;;;;;;-145.18;100.00;46726.81;6152389;23;20311;-72
2023/01/11 08:17:50;;;;;;;21.10;2.80;;;;;;;-145.18;100.00;46720.94;6153593;23;20268;-72
2023/01/11 08:20:15;;;;;;;20.00;3.40;;;;;;;-145.18;100.00;46726.81;6127944;23;20025;-72
2023/01/11 08:22:41;;;;;;;22.80;2.60;;;;;;;-145.18;100.00;46724.84;6154120;23;20354;-72
2023/01/11 08:25:06;;;;;;;31.10;3.17;;;;;;;-145.18;100.00;46724.84;6152281;23;20012;-72
2023/01/11 08:27:32;;;;;;;23.53;3.23;;;;;;;-145.18;100.00;46720.94;6154262;23;20009;-72
2023/01/11 08:29:57;;;;;;;23.30;3.47;;;;;;;-145.18;100.00;46722.91;6153519;23;20013;-72
2023/01/11 08:32:26;;;;;;;24.83;3.33;;;;;;;-145.18;100.00;46724.84;6154210;23;20006;-72
2023/01/11 08:34:52;;;;;;;25.57;5.00;;;;;;;-145.18;100.00;46726.81;6153924;23;20454;-72
2023/01/11 08:37:17;;;;;;;24.37;3.47;;;;;;;-145.18;100.00;46724.84;6153685;23;20240;-72
2023/01/11 08:39:43;;;;;;;26.73;4.27;;;;;;;-145.18;100.00;46724.84;6153806;23;20418;-72
2023/01/11 08:42:08;;;;;;;23.83;3.73;;;;;;;-145.18;100.00;46728.75;6153989;23;20037;-72
2023/01/11 08:44:33;;;;;;;29.07;3.37;;;;;;;-145.18;100.00;46724.84;6153882;23;20331;-72
2023/01/11 08:46:59;;;;;;;29.83;3.00;;;;;;;-145.18;100.00;46722.91;6154055;23;20010;-72
2023/01/11 08:49:24;;;;;;;28.13;3.17;;;;;;;-145.18;100.00;46722.91;6153976;23;20396;-72
2023/01/11 08:51:51;;;;;;;30.57;3.73;;;;;;;-145.18;100.00;46724.84;6154021;23;20056;-72
2023/01/11 08:54:16;;;;;;;19.83;3.03;;;;;;;-145.18;100.00;46724.84;6151618;23;20097;-73
2023/01/11 08:56:42;;;;;;;19.93;2.53;;;;;;;-145.18;100.00;46728.75;6153883;23;20318;-72
2023/01/11 08:59:09;;;;;;;20.80;2.67;;;;;;;-145.18;100.00;46720.94;6153460;23;20017;-72
2023/01/11 09:01:34;;;;;;;31.53;3.50;;;;;;;-145.18;100.00;46722.91;6153725;23;20088;-72
2023/01/11 09:04:00;;;;;;;22.80;3.20;;;;;;;-145.18;100.00;46726.81;6152470;23;20287;-72
2023/01/11 09:06:25;;;;;;;27.43;4.00;;;;;;;-145.18;100.00;46726.81;6153057;23;20431;-72
2023/01/11 09:08:51;;;;;;;21.33;3.60;;;;;;;-145.18;100.00;46726.81;6153656;23;20010;-72
2023/01/11 09:14:01;;;;;;;16.93;3.50;;;;;;;-145.18;100.00;46726.81;6152303;23;20052;-72
2023/01/11 09:16:26;;;;;;;24.27;2.97;;;;;;;-145.18;100.00;46726.81;6153135;23;20232;-72
2023/01/11 09:18:51;;;;;;;22.03;2.50;;;;;;;-145.18;100.00;46722.91;6153608;23;20009;-72
2023/01/11 09:21:17;;;;;;;26.80;2.70;;;;;;;-145.18;100.00;46722.91;6153495;23;20411;-72
2023/01/11 09:23:43;;;;;;;21.83;3.50;;;;;;;-145.18;100.00;46720.94;6153569;23;20009;-72
2023/01/11 09:26:13;;;;;;;14.10;2.43;;;;;;;-145.18;100.00;46717.03;6153390;23;20096;-72
2023/01/11 09:28:39;;;;;;;21.10;5.37;;;;;;;-145.18;100.00;46719.00;6152627;23;20235;-72
2023/01/11 09:31:06;;;;;;;16.30;2.80;;;;;;;-145.18;100.00;46719.00;6153518;23;20223;-72
2023/01/11 09:33:33;;;;;;;19.53;2.63;;;;;;;-145.18;100.00;46719.00;6153300;23;20227;-72
2023/01/11 09:36:00;;;;;;;25.93;3.37;;;;;;;-145.18;100.00;46713.13;6151840;23;20239;-72
2023/01/11 09:38:28;;;;;;;27.57;3.03;;;;;;;-145.18;100.00;46720.94;6153053;23;20272;-72
2023/01/11 09:41:28;;;;;;;28.07;3.50;;;;;;;-145.18;100.00;46715.09;6153247;23;20342;-72
2023/01/11 09:44:14;;;;;;;22.97;3.17;;;;;;;-145.18;100.00;46715.09;6153333;23;20220;-72
2023/01/11 09:46:45;;;;;;;28.70;3.43;;;;;;;-145.18;100.00;46711.19;6153521;23;20045;-72
2023/01/11 09:49:19;;;;;;;21.27;2.73;;;;;;;-145.18;100.00;46703.38;6153432;23;20271;-72
2023/01/11 09:51:46;;;;;;;21.60;3.37;;;;;;;-145.18;100.00;46699.47;6152774;23;20256;-72
2023/01/11 09:54:19;;;;;;;32.83;2.83;;;;;;;-145.18;100.00;46695.56;6152679;23;20236;-73
2023/01/11 09:57:06;;;;;;;23.93;3.67;;;;;;;-145.18;100.00;46685.78;6153298;23;20303;-72
2023/01/11 09:59:59;;;;;;;20.27;3.20;;;;;;;-145.18;100.00;46679.94;6152990;23;20383;-72
2023/01/11 10:02:33;;;;;;;20.93;2.90;;;;;;;-145.18;100.00;46658.44;6152810;23;20223;-72
2023/01/11 10:05:06;;;;;;;17.67;2.30;;;;;;;-145.18;100.00;46633.06;6153097;23;20315;-72
2023/01/11 10:07:48;;;;;;;21.70;2.83;;;;;;;-145.18;100.00;46619.38;6153184;23;20461;-72
2023/01/11 10:10:42;;;;;;;22.37;3.07;;;;;;;-145.18;100.00;46609.59;6152715;23;20224;-72
2023/01/11 10:13:38;;;;;;;15.00;3.60;;;;;;;-145.18;100.00;46601.78;6152933;23;20009;-72
2023/01/11 10:16:19;;;;;;;;;;;;;;;-145.18;100.00;46595.94;6153421;23;20096;-72
2023/01/11 10:18:50;;;;;;;26.00;3.40;;;;;;;-145.18;100.00;46590.06;6152843;23;19913;-73
2023/01/11 10:21:28;;;;;;;23.77;3.23;;;;;;;-145.18;100.00;46592.03;6151326;23;20339;-73
2023/01/11 10:24:07;;;;;;;23.07;4.07;;;;;;;-145.18;100.00;46592.03;6152758;23;20015;-73
2023/01/11 10:26:38;;;;;;;24.80;2.93;;;;;;;-145.18;100.00;46592.03;6152961;23;20712;-72
2023/01/11 10:29:29;;;;;;;20.20;3.80;;;;;;;-145.18;100.00;46593.97;6152737;23;20048;-73
2023/01/11 10:34:59;;;;;;;20.93;2.60;;;;;;;-145.18;100.00;46595.94;6153255;23;20493;-73
2023/01/11 10:41:02;;;;;;;17.43;4.07;;;;;;;-145.18;100.00;46593.97;6149234;23;20257;-73
2023/01/11 10:43:32;;;;;;;30.23;3.23;;;;;;;-145.18;100.00;46590.06;6151244;23;20425;-73
2023/01/11 10:46:12;;;;;;;23.10;3.40;;;;;;;-145.18;100.00;46599.84;6152859;23;20235;-73
2023/01/11 10:48:40;;;;;;;23.70;3.60;;;;;;;-145.18;100.00;46601.78;6152577;23;20005;-73
2023/01/11 10:51:09;;;;;;;17.70;2.90;;;;;;;-145.18;100.00;46597.88;6153054;23;20310;-73
2023/01/11 10:54:03;;;;;;;22.23;3.07;;;;;;;-145.18;100.00;46601.78;6150640;23;20016;-73
2023/01/11 10:56:48;;;;;;;16.47;2.87;;;;;;;-145.18;100.00;46601.78;6152823;23;20244;-74
2023/01/11 10:59:33;;;;;;;20.87;3.07;;;;;;;-145.18;100.00;46603.75;6150697;23;20013;-74
2023/01/11 11:02:12;;;;;;;22.15;3.28;;;;;;;-145.18;100.00;46615.47;6152690;23;20263;-74
2023/01/11 11:05:25;;;;;;;26.60;3.93;;;;;;;-145.18;100.00;46613.50;6155443;23;20025;-74
2023/01/11 11:08:16;;;;;;;29.00;3.13;;;;;;;-145.18;100.00;46621.31;6169533;23;20017;-74
2023/01/11 11:11:08;;;;;;;26.13;4.23;;;;;;;-145.18;100.00;46625.22;6182336;23;20600;-74
2023/01/11 11:13:52;;;;;;;27.73;2.47;;;;;;;-145.18;100.00;46633.06;6162624;23;20016;-74
2023/01/11 11:16:20;;;;;;;15.73;3.43;;;;;;;-145.18;100.00;46631.09;6182269;23;20075;-74
2023/01/11 11:18:48;;;;;;;27.37;3.93;;;;;;;-145.18;100.00;46636.94;6182130;23;20032;-74
2023/01/11 11:21:39;;;;;;;29.03;4.30;;;;;;;-145.18;100.00;46644.78;6182177;23;20418;-74
2023/01/11 11:24:18;;;;;;;17.50;2.33;;;;;;;-145.18;100.00;46642.81;6164135;23;20005;-75
2023/01/11 11:26:50;;;;;;;27.23;3.53;;;;;;;-145.18;100.00;46662.34;6182319;23;20132;-75
2023/01/11 11:29:21;;;;;;;25.17;2.57;;;;;;;-145.18;100.00;46666.25;6155641;23;20033;-75
2023/01/11 11:31:49;;;;;;;23.43;3.37;;;;;;;-145.18;100.00;46662.34;6182489;23;19993;-75
2023/01/11 11:34:18;;;;;;;27.47;3.97;;;;;;;-145.18;100.00;46676.03;6181456;23;20062;-75
2023/01/11 11:36:46;;;;;;;31.30;3.73;;;;;;;-145.18;100.00;46687.75;6182009;23;20001;-75
2023/01/11 11:39:19;;;;;;;20.30;2.70;;;;;;;-145.18;100.00;46695.56;6181033;23;20434;-75
2023/01/11 11:41:50;;;;;;;31.17;4.53;;;;;;;-145.18;100.00;46699.47;6182089;23;20009;-75
2023/01/11 11:44:20;;;;;;;19.33;3.37;;;;;;;-145.18;100.00;46717.03;6181501;23;20442;-75
2023/01/11 11:47:03;;;;;;;20.47;3.00;;;;;;;-145.18;100.00;46705.31;6181478;23;20059;-75
2023/01/11 11:49:34;;;;;;;20.90;3.53;;;;;;;-145.18;100.00;46711.19;6180375;23;20458;-75
2023/01/11 11:52:02;;;;;;;27.07;4.03;;;;;;;-145.18;100.00;46699.47;6155160;23;20147;-75
2023/01/11 11:54:27;;;;;;;19.73;3.43;;;;;;;-145.18;100.00;46693.59;6181774;23;20029;-75
2023/01/11 11:56:54;;;;;;;38.70;4.63;;;;;;;-145.18;100.00;46681.88;6181620;23;20125;-75
2023/01/11 11:59:23;;;;;;;23.63;3.67;;;;;;;-145.18;100.00;46672.13;6181177;23;20009;-75